Time;durP1;ratioP1;P1;durP2;ratioP2;P2;SDS_P1;SDS_P2;PMS_P1;PMS_P2;Temp;Humidity;BMP_temperature;BMP_pressure;BME280_temperature;BME280_humidity;BME280_pressure;Samples;Min_cycle;Max_cycle;Signal;HPM_P1;HPM_P2
2023/03/15 00:01:15;;;;;;;24.87;18.07;;;13.10;94.60;;;;;;5091589;28;20644;-66
2023/03/15 00:03:42;;;;;;;20.23;17.73;;;13.20;94.70;;;;;;5082965;28;20209;-66
2023/03/15 00:06:10;;;;;;;19.93;17.37;;;13.20;94.80;;;;;;5081486;28;20212;-65
2023/03/15 00:08:37;;;;;;;21.50;18.80;;;13.20;94.80;;;;;;5086733;28;20274;-66
2023/03/15 00:11:05;;;;;;;24.37;19.57;;;13.20;94.70;;;;;;5086879;28;20630;-66
2023/03/15 00:13:32;;;;;;;23.33;19.87;;;13.10;94.80;;;;;;5091302;28;20567;-65
2023/03/15 00:16:02;;;;;;;23.37;18.50;;;13.10;94.90;;;;;;5091430;28;20196;-66
2023/03/15 00:18:30;;;;;;;22.30;17.70;;;13.10;95.10;;;;;;5094648;28;20268;-66
2023/03/15 00:20:57;;;;;;;21.33;17.20;;;13.10;95.00;;;;;;5091375;28;20206;-66
2023/03/15 00:23:24;;;;;;;24.50;19.77;;;13.00;95.00;;;;;;5093756;28;20617;-66
2023/03/15 00:25:52;;;;;;;20.90;18.27;;;13.00;95.00;;;;;;5095813;28;20204;-66
2023/03/15 00:28:20;;;;;;;27.07;19.57;;;13.00;95.10;;;;;;5085120;28;20189;-66
2023/03/15 00:30:47;;;;;;;25.70;18.77;;;12.90;95.10;;;;;;5087083;28;20209;-66
2023/03/15 00:33:15;;;;;;;24.40;18.87;;;12.90;95.20;;;;;;5088953;28;20221;-66
2023/03/15 00:35:44;;;;;;;20.50;17.53;;;13.00;95.20;;;;;;5092808;28;20198;-66
2023/03/15 00:38:13;;;;;;;26.03;19.33;;;13.00;95.30;;;;;;5088705;28;20208;-66
2023/03/15 00:40:41;;;;;;;26.03;22.13;;;13.00;95.30;;;;;;5085392;28;20276;-66
2023/03/15 00:43:08;;;;;;;26.13;21.50;;;13.00;95.40;;;;;;5093482;28;20591;-66
2023/03/15 00:45:35;;;;;;;27.30;22.97;;;13.00;95.60;;;;;;5088118;28;20285;-66
2023/03/15 00:48:03;;;;;;;23.63;20.97;;;13.10;95.70;;;;;;5093602;28;20219;-66
2023/03/15 00:50:30;;;;;;;29.43;22.17;;;13.10;95.80;;;;;;5086876;28;20551;-66
2023/03/15 00:52:57;;;;;;;28.33;21.07;;;13.10;95.80;;;;;;5095546;28;20211;-66
2023/03/15 00:55:25;;;;;;;27.30;22.07;;;13.10;95.90;;;;;;5091872;28;20196;-66
2023/03/15 00:57:52;;;;;;;29.17;22.50;;;13.10;96.00;;;;;;5085113;28;20505;-66
2023/03/15 01:00:23;;;;;;;26.77;22.77;;;13.10;96.00;;;;;;5082108;28;20198;-66
2023/03/15 01:02:52;;;;;;;23.03;19.57;;;13.00;95.90;;;;;;5085333;28;20281;-66
2023/03/15 01:05:20;;;;;;;21.00;16.63;;;13.00;95.60;;;;;;5090475;28;20204;-66
2023/03/15 01:07:48;;;;;;;19.93;16.80;;;13.00;95.50;;;;;;5091152;28;20206;-66
2023/03/15 01:10:16;;;;;;;20.70;16.73;;;12.90;95.30;;;;;;5091895;28;20688;-65
2023/03/15 01:12:44;;;;;;;21.93;15.43;;;12.90;95.40;;;;;;5094884;28;20269;-65
2023/03/15 01:15:13;;;;;;;20.67;15.57;;;12.90;95.40;;;;;;5093519;28;20569;-66
2023/03/15 01:17:40;;;;;;;23.53;16.13;;;12.90;95.30;;;;;;5094688;28;20213;-65
2023/03/15 01:20:10;;;;;;;20.97;16.00;;;12.90;95.30;;;;;;5085019;28;20194;-66
2023/03/15 01:22:37;;;;;;;19.83;15.37;;;12.90;95.30;;;;;;5095230;28;20211;-66
2023/03/15 01:25:08;;;;;;;21.37;16.17;;;12.90;95.40;;;;;;5091023;28;20215;-66
2023/03/15 01:27:35;;;;;;;17.67;15.37;;;13.00;95.40;;;;;;5090438;28;20269;-66
2023/03/15 01:30:03;;;;;;;20.97;15.87;;;13.00;95.40;;;;;;5092562;28;20201;-66
2023/03/15 01:32:31;;;;;;;21.53;15.07;;;13.00;95.30;;;;;;5093813;28;20590;-66
2023/03/15 01:34:58;;;;;;;18.07;13.87;;;13.00;95.20;;;;;;5095457;28;20208;-66
2023/03/15 01:37:26;;;;;;;18.70;15.47;;;13.00;95.20;;;;;;5094583;28;20201;-65
2023/03/15 01:39:53;;;;;;;16.03;14.30;;;13.00;95.20;;;;;;5094693;28;20211;-66
2023/03/15 01:42:20;;;;;;;15.97;14.17;;;13.00;95.20;;;;;;5090749;28;20352;-66
2023/03/15 01:44:47;;;;;;;20.87;14.20;;;13.00;95.20;;;;;;5094419;28;20201;-66
2023/03/15 01:47:14;;;;;;;19.10;14.10;;;13.00;95.20;;;;;;5094702;28;20570;-66
2023/03/15 01:49:42;;;;;;;16.03;14.10;;;13.00;95.20;;;;;;5091113;28;20219;-66
2023/03/15 01:52:16;;;;;;;17.77;12.80;;;13.00;95.10;;;;;;5095068;28;20571;-66
2023/03/15 01:55:09;;;;;;;17.67;14.60;;;13.10;95.10;;;;;;5093966;28;20210;-66
2023/03/15 01:57:47;;;;;;;16.40;12.73;;;13.00;95.00;;;;;;5094499;28;20200;-66
2023/03/15 02:00:17;;;;;;;20.70;12.53;;;13.00;95.00;;;;;;5090831;28;20204;-66
2023/03/15 02:02:57;;;;;;;19.50;11.80;;;13.00;95.00;;;;;;5091555;28;20212;-66
2023/03/15 02:05:31;;;;;;;15.17;12.50;;;13.00;95.00;;;;;;5090091;28;20204;-66
2023/03/15 02:08:02;;;;;;;18.30;12.97;;;13.00;95.00;;;;;;5093566;28;20609;-66
2023/03/15 02:10:41;;;;;;;14.77;12.07;;;13.00;95.00;;;;;;5077835;28;20215;-65
2023/03/15 02:13:12;;;;;;;20.67;12.00;;;13.00;95.00;;;;;;5093692;28;20704;-66
2023/03/15 02:15:45;;;;;;;16.13;11.60;;;13.10;95.00;;;;;;5100316;28;20209;-66
2023/03/15 02:18:20;;;;;;;17.23;11.60;;;13.10;94.90;;;;;;5080553;28;20216;-65
2023/03/15 02:20:56;;;;;;;16.23;11.00;;;13.00;94.80;;;;;;5095092;28;20193;-66
2023/03/15 02:23:23;;;;;;;12.50;11.03;;;13.00;94.80;;;;;;5091059;28;20199;-66
2023/03/15 02:26:20;;;;;;;14.10;10.33;;;13.00;94.80;;;;;;5092326;28;20216;-66
2023/03/15 02:28:48;;;;;;;15.73;11.57;;;13.00;94.90;;;;;;5089491;28;20236;-66
2023/03/15 02:31:15;;;;;;;12.90;10.07;;;13.00;94.90;;;;;;5091908;28;20209;-66
2023/03/15 02:33:49;;;;;;;13.83;10.93;;;13.00;94.90;;;;;;5093786;28;20212;-66
2023/03/15 02:36:23;;;;;;;16.60;10.43;;;13.00;94.90;;;;;;5086465;28;20544;-66
2023/03/15 02:38:52;;;;;;;12.50;9.93;;;13.00;94.90;;;;;;5103441;28;20201;-66
2023/03/15 02:41:37;;;;;;;14.13;10.03;;;13.00;94.80;;;;;;5086804;28;20200;-66
2023/03/15 02:44:13;;;;;;;16.10;10.47;;;13.00;94.80;;;;;;5088829;28;20516;-66
2023/03/15 02:46:42;;;;;;;15.10;10.37;;;13.00;94.80;;;;;;5089725;28;20630;-66
2023/03/15 02:49:11;;;;;;;16.97;9.77;;;13.10;94.80;;;;;;5080253;28;20198;-66
2023/03/15 02:51:38;;;;;;;13.60;10.43;;;13.10;94.80;;;;;;5091966;28;20200;-66
2023/03/15 02:54:05;;;;;;;13.37;10.30;;;13.20;94.70;;;;;;5096614;28;20269;-66
2023/03/15 02:56:32;;;;;;;12.97;10.20;;;13.20;94.70;;;;;;5092395;28;20226;-66
2023/03/15 02:59:00;;;;;;;13.93;11.50;;;13.20;94.70;;;;;;5083399;28;20294;-66
2023/03/15 03:01:30;;;;;;;13.87;10.17;;;13.20;94.70;;;;;;5087599;28;20546;-66
2023/03/15 03:03:57;;;;;;;15.30;11.20;;;13.10;94.70;;;;;;5086525;28;20207;-66
2023/03/15 03:06:24;;;;;;;15.00;10.80;;;13.10;94.70;;;;;;5092352;28;20543;-65
2023/03/15 03:08:52;;;;;;;19.33;13.83;;;13.10;94.70;;;;;;5090979;28;20672;-66
2023/03/15 03:11:19;;;;;;;18.17;12.87;;;13.10;94.60;;;;;;5101859;28;20225;-66
2023/03/15 03:13:46;;;;;;;18.10;13.97;;;13.10;94.60;;;;;;5090758;28;20246;-65
2023/03/15 03:16:13;;;;;;;21.53;14.90;;;13.00;94.50;;;;;;5087727;28;20552;-66
2023/03/15 03:18:42;;;;;;;18.93;16.07;;;13.00;94.40;;;;;;5087940;28;20201;-66
2023/03/15 03:21:09;;;;;;;19.13;14.83;;;13.00;94.40;;;;;;5091918;28;20543;-66
2023/03/15 03:23:36;;;;;;;21.53;15.27;;;12.90;94.30;;;;;;5091036;28;20212;-66
2023/03/15 03:26:15;;;;;;;19.87;15.70;;;12.90;94.30;;;;;;5093703;28;20208;-66
2023/03/15 03:28:46;;;;;;;18.17;15.70;;;12.90;94.30;;;;;;5092182;28;20204;-65
2023/03/15 03:31:20;;;;;;;22.90;17.37;;;12.80;94.20;;;;;;5091770;28;20239;-66
2023/03/15 03:33:49;;;;;;;21.67;17.47;;;12.80;94.20;;;;;;5089616;28;20620;-66
2023/03/15 03:36:16;;;;;;;21.23;16.60;;;12.80;94.20;;;;;;5087502;28;20312;-66
2023/03/15 03:38:45;;;;;;;23.53;18.50;;;12.70;94.20;;;;;;5088918;28;20622;-66
2023/03/15 03:41:13;;;;;;;23.77;20.13;;;12.70;94.20;;;;;;5080868;28;20209;-66
2023/03/15 03:43:40;;;;;;;20.07;17.80;;;12.70;94.20;;;;;;5092173;28;20271;-66
2023/03/15 03:46:08;;;;;;;26.70;18.47;;;12.60;94.20;;;;;;5088901;28;20254;-66
2023/03/15 03:48:40;;;;;;;22.77;18.93;;;12.60;94.10;;;;;;5105955;28;20206;-66
2023/03/15 03:51:07;;;;;;;24.10;17.77;;;12.60;94.10;;;;;;5081851;28;20631;-66
2023/03/15 03:53:34;;;;;;;22.07;17.17;;;12.50;94.00;;;;;;5082866;28;20252;-66
2023/03/15 03:56:04;;;;;;;19.37;14.60;;;12.50;94.10;;;;;;5092279;28;20199;-66
2023/03/15 03:58:31;;;;;;;16.47;12.40;;;12.50;94.10;;;;;;5086956;28;20617;-66
2023/03/15 04:01:04;;;;;;;13.77;11.97;;;12.40;94.10;;;;;;5090353;28;20209;-66
2023/03/15 04:03:34;;;;;;;16.93;11.77;;;12.40;94.10;;;;;;5094225;28;20210;-66
2023/03/15 04:06:05;;;;;;;13.47;12.00;;;12.40;94.10;;;;;;5105772;28;20200;-66
2023/03/15 04:08:37;;;;;;;17.27;11.37;;;12.30;94.00;;;;;;5089806;28;20650;-66
2023/03/15 04:11:06;;;;;;;14.27;11.33;;;12.30;93.90;;;;;;5089749;28;20220;-66
2023/03/15 04:13:36;;;;;;;15.40;12.97;;;12.20;93.80;;;;;;5084792;28;20311;-66
2023/03/15 04:16:05;;;;;;;16.83;13.03;;;12.20;93.70;;;;;;5082356;28;20204;-66
2023/03/15 04:18:44;;;;;;;19.23;14.00;;;12.10;93.70;;;;;;5090307;28;20313;-65
2023/03/15 04:21:12;;;;;;;18.47;14.63;;;12.10;93.70;;;;;;5079517;28;20198;-66
2023/03/15 04:23:42;;;;;;;22.47;16.63;;;12.00;93.70;;;;;;5092172;28;20209;-65
2023/03/15 04:26:15;;;;;;;28.17;18.00;;;12.00;93.80;;;;;;5090907;28;20200;-66
2023/03/15 04:29:11;;;;;;;23.70;17.20;;;11.90;93.80;;;;;;5078001;28;20209;-66
2023/03/15 04:31:51;;;;;;;24.57;17.93;;;11.90;93.80;;;;;;5088871;28;20212;-66
2023/03/15 04:34:41;;;;;;;26.97;17.70;;;11.90;93.80;;;;;;5089865;28;20259;-66
2023/03/15 04:37:24;;;;;;;21.63;17.47;;;11.90;93.80;;;;;;5091059;28;20206;-66
2023/03/15 04:39:54;;;;;;;22.37;18.30;;;11.90;93.80;;;;;;5092742;28;20204;-65
2023/03/15 04:42:39;;;;;;;24.50;17.73;;;11.90;93.60;;;;;;5088403;28;20314;-66
2023/03/15 04:45:19;;;;;;;23.60;17.40;;;11.90;93.50;;;;;;5083525;28;20193;-66
2023/03/15 04:48:04;;;;;;;19.77;16.53;;;11.80;93.40;;;;;;5093022;28;20207;-66
2023/03/15 04:50:52;;;;;;;22.30;16.77;;;11.80;93.60;;;;;;5078500;28;20308;-66
2023/03/15 04:53:42;;;;;;;20.40;16.10;;;11.70;93.20;;;;;;5091610;28;20428;-66
2023/03/15 04:56:47;;;;;;;22.27;15.50;;;11.60;93.10;;;;;;5067816;28;20209;-66
2023/03/15 04:59:37;;;;;;;19.47;14.87;;;11.60;93.00;;;;;;5033577;28;20651;-66
2023/03/15 05:02:22;;;;;;;20.47;15.73;;;11.50;92.90;;;;;;5085598;28;20205;-66
2023/03/15 05:05:12;;;;;;;20.67;15.63;;;11.40;92.90;;;;;;5095409;28;20531;-66
2023/03/15 05:08:04;;;;;;;21.47;16.47;;;11.40;92.90;;;;;;5092132;28;20216;-66
2023/03/15 05:10:57;;;;;;;20.80;15.70;;;11.30;92.90;;;;;;5087204;28;20217;-66
2023/03/15 05:13:42;;;;;;;21.40;16.40;;;11.30;92.90;;;;;;5083719;28;20214;-66
2023/03/15 05:16:32;;;;;;;21.17;16.57;;;11.20;92.90;;;;;;5069624;28;20240;-66
2023/03/15 05:19:10;;;;;;;22.50;15.60;;;11.20;92.90;;;;;;5103459;28;20213;-66
2023/03/15 05:21:53;;;;;;;18.63;15.03;;;11.20;92.90;;;;;;5096163;28;20203;-66
2023/03/15 05:24:35;;;;;;;22.40;15.30;;;11.10;92.90;;;;;;5091920;28;20246;-65
2023/03/15 05:27:15;;;;;;;22.27;15.10;;;11.10;92.80;;;;;;5094743;28;20268;-66
2023/03/15 05:30:06;;;;;;;20.57;16.13;;;11.00;92.70;;;;;;5084338;28;20292;-66
2023/03/15 05:33:03;;;;;;;20.90;14.83;;;11.00;92.70;;;;;;5076520;28;20528;-66
2023/03/15 05:35:43;;;;;;;19.90;15.23;;;10.90;92.70;;;;;;5091943;28;20672;-66
2023/03/15 05:38:16;;;;;;;19.13;14.90;;;10.90;92.70;;;;;;5088343;28;20633;-66
2023/03/15 05:41:08;;;;;;;17.63;14.57;;;10.90;92.70;;;;;;5090887;28;20208;-66
2023/03/15 05:43:45;;;;;;;18.13;14.27;;;10.80;92.60;;;;;;5084878;28;20237;-66
2023/03/15 05:46:37;;;;;;;18.10;13.27;;;10.80;92.60;;;;;;5092347;28;20548;-66
2023/03/15 05:49:11;;;;;;;18.80;13.40;;;10.80;92.60;;;;;;5089889;28;20685;-66
2023/03/15 05:52:07;;;;;;;16.30;12.50;;;10.80;92.50;;;;;;5064358;28;20252;-65
2023/03/15 05:54:46;;;;;;;17.60;12.80;;;10.80;92.40;;;;;;5086599;28;20227;-65
2023/03/15 05:57:32;;;;;;;14.60;11.27;;;10.80;92.20;;;;;;5095048;28;20648;-65
2023/03/15 06:00:18;;;;;;;15.07;10.63;;;10.80;92.00;;;;;;5092356;28;20289;-65
2023/03/15 06:02:49;;;;;;;13.83;10.27;;;10.70;91.60;;;;;;5085462;28;20206;-65
2023/03/15 06:05:28;;;;;;;13.03;10.40;;;10.70;91.30;;;;;;5090733;28;20299;-65
2023/03/15 06:08:00;;;;;;;13.53;9.37;;;10.80;91.20;;;;;;5094328;28;20282;-66
2023/03/15 06:10:27;;;;;;;11.60;8.70;;;10.80;91.10;;;;;;5088963;28;20288;-66
2023/03/15 06:12:56;;;;;;;10.97;9.13;;;10.80;90.90;;;;;;5081670;28;20243;-66
2023/03/15 06:15:23;;;;;;;12.40;8.33;;;10.80;90.80;;;;;;5093195;28;20600;-66
2023/03/15 06:17:52;;;;;;;10.87;8.03;;;10.90;90.70;;;;;;5102753;27;20205;-65
2023/03/15 06:20:19;;;;;;;9.33;7.73;;;10.90;90.60;;;;;;5075223;28;20210;-65
2023/03/15 06:22:46;;;;;;;14.43;8.53;;;11.00;90.30;;;;;;5090288;28;20224;-65
2023/03/15 06:25:26;;;;;;;15.40;10.20;;;11.10;90.10;;;;;;5081224;28;20201;-65
2023/03/15 06:27:53;;;;;;;17.47;10.77;;;11.10;89.70;;;;;;5096737;28;20211;-65
2023/03/15 06:30:22;;;;;;;15.03;11.80;;;11.30;89.30;;;;;;5097331;28;20624;-65
2023/03/15 06:32:54;;;;;;;19.17;11.40;;;11.40;88.40;;;;;;5090715;28;20694;-65
2023/03/15 06:35:21;;;;;;;13.97;10.20;;;11.60;87.50;;;;;;5094014;28;20311;-65
2023/03/15 06:37:48;;;;;;;9.90;8.30;;;11.70;86.50;;;;;;5093367;28;20638;-66
2023/03/15 06:40:15;;;;;;;15.73;8.07;;;11.80;86.00;;;;;;5090893;28;20201;-66
2023/03/15 06:42:43;;;;;;;11.03;7.90;;;11.90;85.20;;;;;;5093871;28;20301;-66
2023/03/15 06:45:15;;;;;;;12.20;7.03;;;11.90;84.30;;;;;;5091355;28;20195;-65
2023/03/15 06:47:44;;;;;;;7.23;5.93;;;12.00;84.00;;;;;;5092318;28;20215;-65
2023/03/15 06:50:11;;;;;;;11.50;5.80;;;12.00;83.50;;;;;;5092865;28;20200;-66
2023/03/15 06:52:38;;;;;;;11.00;6.47;;;12.10;83.30;;;;;;5084413;28;20200;-66
2023/03/15 06:55:06;;;;;;;8.37;5.63;;;12.10;82.80;;;;;;5085051;28;20213;-66
2023/03/15 06:57:33;;;;;;;6.57;5.20;;;12.10;82.60;;;;;;5082339;28;20206;-65
2023/03/15 07:00:00;;;;;;;7.50;5.23;;;12.30;82.60;;;;;;5094045;28;20614;-65
2023/03/15 07:02:27;;;;;;;6.07;5.30;;;12.40;81.80;;;;;;5093357;28;20201;-65
2023/03/15 07:04:54;;;;;;;10.10;5.60;;;12.50;81.60;;;;;;5092372;28;20223;-66
2023/03/15 07:07:21;;;;;;;8.80;4.53;;;12.50;81.30;;;;;;5089218;28;20216;-66
2023/03/15 07:09:47;;;;;;;4.23;3.73;;;12.50;81.20;;;;;;5084426;28;20538;-66
2023/03/15 07:12:14;;;;;;;5.23;3.93;;;12.50;80.80;;;;;;5087529;28;20301;-65
2023/03/15 07:14:41;;;;;;;4.97;3.57;;;12.50;80.10;;;;;;5090668;28;20213;-65
2023/03/15 07:17:08;;;;;;;9.57;3.17;;;12.50;80.00;;;;;;5088778;28;20204;-66
2023/03/15 07:19:35;;;;;;;5.60;3.27;;;12.50;78.80;;;;;;5088875;28;20227;-66
2023/03/15 07:22:12;;;;;;;4.00;3.07;;;12.50;78.40;;;;;;5084267;28;20255;-66
2023/03/15 07:24:39;;;;;;;6.47;2.77;;;12.50;77.70;;;;;;5089990;28;20278;-65
2023/03/15 07:27:09;;;;;;;3.67;3.03;;;12.50;76.70;;;;;;5084004;28;20210;-66
2023/03/15 07:29:36;;;;;;;22.83;12.30;;;12.40;76.00;;;;;;5084025;28;20283;-66
2023/03/15 07:32:04;;;;;;;6.67;3.83;;;12.40;75.80;;;;;;5088233;28;20228;-65
2023/03/15 07:34:30;;;;;;;7.70;4.10;;;12.30;75.90;;;;;;5086673;28;20216;-65
2023/03/15 07:36:58;;;;;;;4.03;3.27;;;12.30;76.10;;;;;;5088802;28;20586;-66
2023/03/15 07:39:25;;;;;;;6.20;3.13;;;12.30;76.20;;;;;;5090559;28;20201;-66
2023/03/15 07:41:52;;;;;;;5.33;2.67;;;12.40;75.50;;;;;;5092489;28;20208;-66
2023/03/15 07:44:29;;;;;;;6.57;3.03;;;12.50;74.90;;;;;;5089810;28;20207;-66
2023/03/15 07:46:57;;;;;;;6.37;2.80;;;12.60;74.60;;;;;;5083135;28;20234;-66
2023/03/15 07:49:24;;;;;;;3.87;2.80;;;12.70;74.20;;;;;;5093906;28;20233;-65
2023/03/15 07:51:51;;;;;;;3.30;2.90;;;12.90;72.90;;;;;;5090773;28;20189;-66
2023/03/15 07:54:19;;;;;;;3.57;2.67;;;13.10;72.00;;;;;;5089152;28;20228;-66
2023/03/15 07:56:46;;;;;;;5.90;3.80;;;13.30;71.20;;;;;;5093064;28;20654;-66
2023/03/15 07:59:13;;;;;;;7.13;4.07;;;13.50;69.90;;;;;;5093777;28;20254;-66
2023/03/15 08:01:40;;;;;;;7.80;4.70;;;13.70;68.30;;;;;;5089950;28;20201;-66
2023/03/15 08:04:07;;;;;;;7.03;4.97;;;13.80;66.90;;;;;;5080807;28;20332;-66
2023/03/15 08:06:34;;;;;;;12.53;4.83;;;13.90;63.10;;;;;;5090972;28;20205;-66
2023/03/15 08:09:04;;;;;;;4.93;4.40;;;13.90;62.50;;;;;;5093234;28;20573;-66
2023/03/15 08:11:32;;;;;;;4.83;3.97;;;13.90;64.00;;;;;;5090774;28;20279;-66
2023/03/15 08:13:59;;;;;;;6.23;5.53;;;13.90;64.70;;;;;;5083950;28;20211;-66
2023/03/15 08:16:26;;;;;;;8.90;5.53;;;13.90;64.60;;;;;;5090020;28;20237;-66
2023/03/15 08:18:53;;;;;;;8.60;5.70;;;13.80;63.60;;;;;;5091456;28;20212;-66
2023/03/15 08:21:21;;;;;;;10.30;7.27;;;13.80;64.80;;;;;;5083776;28;20633;-66
2023/03/15 08:23:47;;;;;;;5.93;5.07;;;13.80;65.80;;;;;;5093166;28;20268;-66
2023/03/15 08:26:14;;;;;;;6.93;4.63;;;13.80;65.10;;;;;;5087464;28;20196;-66
2023/03/15 08:28:41;;;;;;;6.97;5.10;;;13.80;65.20;;;;;;5091831;28;20194;-66
2023/03/15 08:31:09;;;;;;;7.23;5.77;;;13.80;65.70;;;;;;5088679;28;20215;-66
2023/03/15 08:33:36;;;;;;;8.10;4.97;;;13.80;66.50;;;;;;5087715;28;20208;-66
2023/03/15 08:36:03;;;;;;;6.33;4.67;;;13.70;67.10;;;;;;5092632;28;20213;-65
2023/03/15 08:38:30;;;;;;;7.83;5.80;;;13.80;67.40;;;;;;5093853;28;20215;-64
2023/03/15 08:40:58;;;;;;;8.70;5.73;;;13.70;67.70;;;;;;5094538;28;20638;-65
2023/03/15 08:43:25;;;;;;;11.63;6.43;;;13.70;67.90;;;;;;5087949;28;20241;-65
2023/03/15 08:45:52;;;;;;;9.43;5.87;;;13.60;67.30;;;;;;5090048;28;20194;-67
2023/03/15 08:48:28;;;;;;;9.67;5.93;;;13.50;67.50;;;;;;5093687;28;20200;-66
2023/03/15 08:51:01;;;;;;;7.70;5.03;;;13.50;68.10;;;;;;5086823;28;20231;-66
2023/03/15 08:53:29;;;;;;;6.90;5.90;;;13.50;69.00;;;;;;5094589;28;20215;-66
2023/03/15 08:55:56;;;;;;;8.53;6.47;;;13.60;69.00;;;;;;5096694;28;20229;-65
2023/03/15 08:58:23;;;;;;;8.57;6.77;;;13.70;68.10;;;;;;5096343;28;20744;-65
2023/03/15 09:00:51;;;;;;;11.60;6.30;;;13.90;67.60;;;;;;5096864;28;20193;-66
2023/03/15 09:03:19;;;;;;;7.07;5.37;;;13.80;66.60;;;;;;5094683;28;20235;-67
2023/03/15 09:05:46;;;;;;;7.30;4.80;;;13.80;66.80;;;;;;5092398;28;20208;-64
2023/03/15 09:08:15;;;;;;;7.83;5.07;;;13.80;66.60;;;;;;5085403;28;20216;-64
2023/03/15 09:10:42;;;;;;;5.93;3.87;;;13.70;66.30;;;;;;5093657;28;20265;-64
2023/03/15 09:13:10;;;;;;;5.60;3.87;;;13.70;66.30;;;;;;5088233;28;20291;-65
2023/03/15 09:15:36;;;;;;;5.37;4.37;;;13.80;65.60;;;;;;5091602;28;20224;-67
2023/03/15 09:18:04;;;;;;;6.37;4.37;;;14.00;65.70;;;;;;5096004;28;20204;-65
2023/03/15 09:20:30;;;;;;;7.77;4.17;;;14.30;65.50;;;;;;5089720;28;20633;-64
2023/03/15 09:22:58;;;;;;;5.10;4.10;;;14.60;64.80;;;;;;5096175;28;20186;-65
2023/03/15 09:25:25;;;;;;;4.40;3.90;;;15.00;63.80;;;;;;5094880;28;20210;-64
2023/03/15 09:27:52;;;;;;;5.67;4.27;;;15.30;62.60;;;;;;5094191;28;20209;-65
2023/03/15 09:30:20;;;;;;;5.27;3.77;;;15.60;62.20;;;;;;5093268;28;20209;-65
2023/03/15 09:32:47;;;;;;;5.53;4.53;;;15.90;62.10;;;;;;5094185;28;20247;-63
2023/03/15 09:35:17;;;;;;;5.43;4.50;;;16.10;60.20;;;;;;5090477;28;20275;-64
2023/03/15 09:37:45;;;;;;;4.80;4.33;;;16.40;61.00;;;;;;5093479;28;20193;-64
2023/03/15 09:40:24;;;;;;;7.10;5.00;;;16.60;59.20;;;;;;5094414;28;20274;-65
2023/03/15 09:43:38;;;;;;;5.40;4.60;;;16.70;58.20;;;;;;5092366;28;20721;-63
2023/03/15 09:46:14;;;;;;;4.87;4.00;;;16.70;57.90;;;;;;5083795;28;20202;-64
2023/03/15 09:48:57;;;;;;;6.33;3.70;;;16.50;58.00;;;;;;5106149;28;20196;-64
2023/03/15 09:51:27;;;;;;;6.43;4.20;;;16.10;57.80;;;;;;5094550;28;20691;-64
2023/03/15 09:54:00;;;;;;;4.97;3.37;;;15.80;58.80;;;;;;5093606;28;20235;-64
2023/03/15 09:56:35;;;;;;;4.83;3.60;;;15.50;60.40;;;;;;5082639;28;20273;-63
2023/03/15 09:59:03;;;;;;;6.47;3.50;;;15.20;60.80;;;;;;5093301;28;20224;-63
2023/03/15 10:01:36;;;;;;;6.07;3.67;;;15.00;61.80;;;;;;5092133;28;20219;-63
2023/03/15 10:04:28;;;;;;;5.77;3.50;;;14.80;62.60;;;;;;5094035;28;20231;-65
2023/03/15 10:07:01;;;;;;;8.10;4.90;;;14.50;63.30;;;;;;5091508;28;20626;-65
2023/03/15 10:09:34;;;;;;;5.60;4.07;;;14.20;66.10;;;;;;5092768;28;20663;-65
2023/03/15 10:12:13;;;;;;;5.87;4.13;;;13.90;68.90;;;;;;5071071;28;20256;-65
2023/03/15 10:14:58;;;;;;;7.60;4.30;;;13.70;71.80;;;;;;5092784;28;20231;-64
2023/03/15 10:17:45;;;;;;;4.50;3.33;;;13.50;73.10;;;;;;5091750;28;20285;-62
2023/03/15 10:20:17;;;;;;;3.27;2.10;;;13.30;74.90;;;;;;5092633;28;20193;-63
2023/03/15 10:23:09;;;;;;;3.27;2.60;;;13.10;74.70;;;;;;5093408;28;20231;-62
2023/03/15 10:25:37;;;;;;;9.63;3.50;;;13.00;74.80;;;;;;5091499;28;20204;-63
2023/03/15 10:28:09;;;;;;;3.47;2.63;;;12.90;76.00;;;;;;5089016;28;20201;-64
2023/03/15 10:30:39;;;;;;;1.20;1.10;;;12.80;76.20;;;;;;5092757;28;20520;-62
2023/03/15 10:33:33;;;;;;;1.30;1.03;;;12.80;75.60;;;;;;5093482;28;20558;-63
2023/03/15 10:36:03;;;;;;;2.27;1.83;;;12.80;72.90;;;;;;5091203;28;20205;-64
2023/03/15 10:38:38;;;;;;;4.03;1.67;;;12.80;74.50;;;;;;5092012;28;20196;-64
2023/03/15 10:41:06;;;;;;;1.83;1.73;;;12.80;76.30;;;;;;5092580;28;20281;-64
2023/03/15 10:43:36;;;;;;;1.83;1.43;;;12.90;77.10;;;;;;5091337;28;20255;-63
2023/03/15 10:46:06;;;;;;;1.93;1.20;;;12.90;78.20;;;;;;5090265;28;20211;-64
2023/03/15 10:48:39;;;;;;;1.03;0.93;;;12.90;77.70;;;;;;5091637;28;20212;-63
2023/03/15 10:51:27;;;;;;;0.60;0.60;;;13.00;77.50;;;;;;5091258;28;20204;-63
2023/03/15 10:54:16;;;;;;;2.33;0.90;;;13.10;77.20;;;;;;5090380;28;20223;-63
2023/03/15 10:56:51;;;;;;;1.00;0.90;;;13.20;76.70;;;;;;5090804;28;20656;-63
2023/03/15 10:59:20;;;;;;;1.77;1.30;;;13.40;76.50;;;;;;5091667;28;20208;-64
2023/03/15 11:01:51;;;;;;;2.17;1.77;;;13.60;76.50;;;;;;5088695;28;20583;-66
2023/03/15 11:04:22;;;;;;;2.23;1.37;;;13.80;77.40;;;;;;5090440;28;20197;-64
2023/03/15 11:07:02;;;;;;;0.40;0.40;;;14.10;77.30;;;;;;5090408;28;20204;-63
2023/03/15 11:09:51;;;;;;;0.40;0.40;;;14.50;76.90;;;;;;5091922;28;20237;-62
2023/03/15 11:12:23;;;;;;;2.43;1.40;;;14.90;76.00;;;;;;5086667;28;20209;-63
2023/03/15 11:15:04;;;;;;;1.37;0.60;;;15.30;73.50;;;;;;5101266;28;20207;-63
2023/03/15 11:17:40;;;;;;;0.50;0.50;;;15.60;71.40;;;;;;5085902;28;20202;-63
2023/03/15 11:20:26;;;;;;;0.20;0.20;;;16.00;71.50;;;;;;5092752;28;20221;-61
2023/03/15 11:22:54;;;;;;;0.30;0.30;;;16.30;69.40;;;;;;5091103;28;20198;-64
2023/03/15 11:25:23;;;;;;;0.40;0.40;;;16.60;68.50;;;;;;5092167;28;20210;-62
2023/03/15 11:27:52;;;;;;;3.00;0.50;;;16.90;66.20;;;;;;5090637;28;20658;-63
2023/03/15 11:30:26;;;;;;;2.10;0.70;;;17.10;66.50;;;;;;5090958;28;20250;-64
2023/03/15 11:32:54;;;;;;;1.53;0.77;;;17.00;63.40;;;;;;5090853;28;20194;-63
2023/03/15 11:35:32;;;;;;;0.60;0.60;;;16.50;63.80;;;;;;5091013;28;20213;-65
2023/03/15 11:38:13;;;;;;;2.97;0.60;;;15.80;66.00;;;;;;5100308;28;20202;-62
2023/03/15 11:40:46;;;;;;;1.43;0.60;;;15.30;68.40;;;;;;5092517;28;20189;-63
2023/03/15 11:43:24;;;;;;;1.37;0.70;;;15.00;73.60;;;;;;5091465;28;20232;-64
2023/03/15 11:45:59;;;;;;;1.30;0.60;;;15.00;74.90;;;;;;5091126;28;20255;-62
2023/03/15 11:49:02;;;;;;;0.77;0.47;;;15.00;74.10;;;;;;5105456;28;20600;-65
2023/03/15 11:51:35;;;;;;;4.07;0.57;;;15.00;71.10;;;;;;5088365;28;20209;-64
2023/03/15 11:54:10;;;;;;;2.40;0.60;;;14.90;72.70;;;;;;5089996;28;20197;-63
2023/03/15 11:56:43;;;;;;;0.43;0.40;;;14.90;72.20;;;;;;5091887;28;20273;-62
2023/03/15 11:59:14;;;;;;;0.93;0.63;;;14.80;70.70;;;;;;5088844;28;20197;-64
2023/03/15 12:01:49;;;;;;;2.30;0.70;;;14.70;72.50;;;;;;5090478;28;20197;-64
2023/03/15 12:04:36;;;;;;;0.77;0.40;;;14.60;73.60;;;;;;5090796;28;20201;-63
2023/03/15 12:07:18;;;;;;;0.93;0.37;;;14.60;71.90;;;;;;5092748;28;20227;-63
2023/03/15 12:09:56;;;;;;;0.37;0.30;;;14.50;73.00;;;;;;5089863;28;20653;-65
2023/03/15 12:12:23;;;;;;;1.77;0.60;;;14.50;73.20;;;;;;5093664;28;20242;-66
2023/03/15 12:15:17;;;;;;;6.23;0.63;;;14.50;74.10;;;;;;5093212;28;20277;-64
2023/03/15 12:17:55;;;;;;;1.93;0.30;;;14.60;72.70;;;;;;5095023;28;20197;-64
2023/03/15 12:20:37;;;;;;;2.47;0.40;;;14.70;72.70;;;;;;5077562;28;20208;-61
2023/03/15 12:23:16;;;;;;;0.50;0.50;;;14.70;72.80;;;;;;5095692;28;20199;-65
2023/03/15 12:25:54;;;;;;;2.30;0.60;;;14.80;72.20;;;;;;5089648;28;20239;-65
2023/03/15 12:28:30;;;;;;;0.30;0.30;;;14.80;72.20;;;;;;5092317;28;20197;-64
2023/03/15 12:31:00;;;;;;;0.30;0.30;;;14.80;72.10;;;;;;5092869;28;20200;-64
2023/03/15 12:33:31;;;;;;;0.60;0.40;;;14.90;72.10;;;;;;5092452;28;20295;-64
2023/03/15 12:36:01;;;;;;;1.37;0.40;;;14.90;71.80;;;;;;5095328;28;20223;-65
2023/03/15 12:38:37;;;;;;;1.70;0.40;;;14.90;71.70;;;;;;5092954;28;20567;-66
2023/03/15 12:41:09;;;;;;;1.30;0.37;;;15.00;73.30;;;;;;5093629;28;20279;-65
2023/03/15 12:43:51;;;;;;;0.37;0.30;;;15.10;72.10;;;;;;5092828;28;20232;-63
2023/03/15 12:46:39;;;;;;;1.70;0.50;;;15.10;72.10;;;;;;5095521;28;20509;-64
2023/03/15 12:49:23;;;;;;;0.30;0.30;;;15.20;71.50;;;;;;5094426;28;20200;-64
2023/03/15 12:51:57;;;;;;;2.20;0.30;;;15.30;69.90;;;;;;5094277;28;20185;-64
2023/03/15 12:54:41;;;;;;;0.30;0.30;;;15.30;70.30;;;;;;5093326;28;20662;-63
2023/03/15 12:57:13;;;;;;;1.10;0.30;;;15.20;69.30;;;;;;5095426;28;20253;-64
2023/03/15 13:00:13;;;;;;;0.60;0.30;;;15.20;69.10;;;;;;5093752;28;20573;-64
2023/03/15 13:02:45;;;;;;;0.70;0.40;;;15.30;68.70;;;;;;5085595;28;20216;-64
2023/03/15 13:05:21;;;;;;;0.30;0.30;;;15.30;68.20;;;;;;5095911;28;20193;-64